Time;durP1;ratioP1;P1;durP2;ratioP2;P2;SDS_P1;SDS_P2;PMS_P1;PMS_P2;Temp;Humidity;BMP_temperature;BMP_pressure;BME280_temperature;BME280_humidity;BME280_pressure;Samples;Min_cycle;Max_cycle;Signal;HPM_P1;HPM_P2
2022/01/25 00:09:18;;;;;;;;;;;;;;;-7.17;95.78;101906.31;5011752;28;19957;-78
2022/01/25 00:28:26;;;;;;;;;;;;;;;-7.27;98.58;101904.44;5012085;28;19923;-78
2022/01/25 00:33:26;;;;;;;;;;;;;;;-7.29;98.24;101903.09;4994405;28;19918;-77
2022/01/25 00:35:52;;;;;;;;;;;;;;;-7.32;98.96;101898.28;5013609;28;19924;-77
2022/01/25 00:38:17;;;;;;;;;;;;;;;-7.34;98.97;101911.19;5010937;28;20387;-77
2022/01/25 00:40:42;;;;;;;;;;;;;;;-7.36;98.28;101898.00;4994216;28;19979;-77
2022/01/25 00:43:08;;;;;;;;;;;;;;;-7.33;98.38;101899.34;5010912;28;19983;-77
2022/01/25 00:45:33;;;;;;;;;;;;;;;-7.31;98.74;101899.88;5011260;28;19924;-77
2022/01/25 00:48:02;;;;;;;;;;;;;;;-7.29;98.12;101900.41;4993925;28;19917;-78
2022/01/25 00:50:31;;;;;;;;;;;;;;;-7.29;97.66;101901.22;5010689;28;19917;-77
2022/01/25 00:55:24;;;;;;;;;;;;;;;-7.29;97.84;101901.22;5011188;28;19921;-77
2022/01/25 00:57:50;;;;;;;;;;;;;;;-7.32;99.10;101898.28;5010145;28;19921;-77
2022/01/25 01:00:15;;;;;;;;;;;;;;;-7.40;99.46;101893.44;4992991;28;19925;-78
2022/01/25 01:02:41;;;;;;;;;;;;;;;-7.41;99.20;101889.94;5011115;28;19917;-77
2022/01/25 01:05:06;;;;;;;;;;;;;;;-7.43;99.13;101886.69;5011100;28;19921;-78
2022/01/25 01:07:32;;;;;;;;;;;;;;;-7.35;98.73;101869.94;5011813;28;20442;-78
2022/01/25 01:09:59;;;;;;;;;;;;;;;-7.32;98.56;101882.09;5010227;28;20402;-77
2022/01/25 01:13:00;;;;;;;;;;;;;;;-7.32;98.69;101872.13;5010776;28;19999;-78
2022/01/25 01:15:30;;;;;;;;;;;;;;;-7.22;98.27;101865.88;5005172;28;20017;-78
2022/01/25 01:31:47;;;;;;;;;;;;;;;-7.04;97.60;101848.31;5011087;28;19921;-77
2022/01/25 01:47:37;;;;;;;;;;;;;;;-6.72;98.82;101824.41;5013811;28;19921;-78
2022/01/25 01:50:08;;;;;;;;;;;;;;;-6.67;97.95;101827.09;5008061;28;19917;-77
2022/01/25 01:52:33;;;;;;;;;;;;;;;-6.74;97.37;101818.47;5009381;28;20008;-78
2022/01/25 01:54:59;;;;;;;;;;;;;;;-6.71;97.41;101823.34;5007769;28;20028;-78
2022/01/25 01:57:24;;;;;;;;;;;;;;;-6.69;97.19;101810.34;5020896;28;19921;-78
2022/01/25 01:59:49;;;;;;;;;;;;;;;-6.69;96.93;101799.56;5010403;28;20331;-78
2022/01/25 02:02:15;;;;;;;;;;;;;;;-6.65;96.98;101806.81;5239479;22;19933;-82
2022/01/25 02:04:40;;;;;;;;;;;;;;;-6.61;97.50;101799.78;4966593;28;19925;-82
2022/01/25 02:07:06;;;;;;;;;;;;;;;-6.56;97.30;101798.13;4975057;28;20291;-81
2022/01/25 02:09:32;;;;;;;;;;;;;;;-6.50;97.53;101791.59;4974024;28;20310;-82
2022/01/25 02:11:58;;;;;;;;;;;;;;;-6.46;97.92;101792.66;4973128;28;19926;-82
2022/01/25 02:14:23;;;;;;;;;;;;;;;-6.52;98.52;101791.09;4957295;28;19925;-82
2022/01/25 02:24:43;;;;;;;;;;;;;;;-6.53;98.89;101770.56;4977216;28;20398;-78
2022/01/25 02:27:09;;;;;;;;;;;;;;;-6.48;99.01;101784.03;4974367;28;20426;-78
2022/01/25 02:29:34;;;;;;;;;;;;;;;-6.49;98.97;101769.72;4963894;28;20017;-78
2022/01/25 02:32:00;;;;;;;;;;;;;;;-6.46;99.23;101769.16;4983173;28;19918;-78
2022/01/25 02:34:25;;;;;;;;;;;;;;;-6.49;99.59;101771.63;4979575;28;20307;-78
2022/01/25 02:36:58;;;;;;;;;;;;;;;-6.48;99.90;101757.03;4947520;28;20283;-78
2022/01/25 02:39:23;;;;;;;;;;;;;;;-6.57;99.67;101758.72;4974058;28;19914;-78
2022/01/25 02:41:50;;;;;;;;;;;;;;;-6.59;99.62;101752.81;4975894;28;20299;-78
2022/01/25 02:44:23;;;;;;;;;;;;;;;-6.58;99.70;101752.50;4956529;28;19961;-77
2022/01/25 02:49:16;;;;;;;;;;;;;;;-6.39;99.88;101749.97;4984649;28;19925;-78
2022/01/25 02:51:46;;;;;;;;;;;;;;;-6.31;99.37;101754.75;4986921;28;19925;-77
2022/01/25 02:54:12;;;;;;;;;;;;;;;-6.33;98.70;101743.41;4972932;28;19951;-78
2022/01/25 02:56:37;;;;;;;;;;;;;;;-6.44;98.58;101750.00;4973748;28;20291;-78
2022/01/25 02:59:04;;;;;;;;;;;;;;;-6.33;98.47;101754.22;4972543;28;19925;-77
2022/01/25 03:01:29;;;;;;;;;;;;;;;-6.33;97.85;101754.22;4973680;28;20020;-78
2022/01/25 03:03:55;;;;;;;;;;;;;;;-6.31;97.81;101742.06;4956030;28;20001;-78
2022/01/25 03:06:21;;;;;;;;;;;;;;;-6.40;97.36;101740.25;4987060;28;19926;-77
2022/01/25 03:08:47;;;;;;;;;;;;;;;-6.49;97.80;101733.81;4993136;28;20405;-78
2022/01/25 03:11:12;;;;;;;;;;;;;;;-6.40;97.78;101734.84;4974037;28;20374;-78
2022/01/25 03:13:49;;;;;;;;;;;;;;;-6.38;97.35;101736.16;4973655;28;19918;-77
2022/01/25 03:19:02;;;;;;;;;;;;;;;-6.37;96.91;101736.97;4973515;28;19918;-78
2022/01/25 03:23:53;;;;;;;;;;;;;;;-6.23;96.71;101727.16;4977363;28;20000;-77
2022/01/25 03:26:19;;;;;;;;;;;;;;;-6.18;96.22;101735.19;4974590;28;19932;-78
2022/01/25 03:28:44;;;;;;;;;;;;;;;-6.18;96.19;101730.59;4973438;28;20298;-78
2022/01/25 03:31:10;;;;;;;;;;;;;;;-6.14;96.37;101726.22;4974081;28;20382;-77
2022/01/25 03:33:35;;;;;;;;;;;;;;;-6.15;96.04;101721.13;4976381;28;19922;-78
2022/01/25 03:36:01;;;;;;;;;;;;;;;-6.12;96.82;101728.66;4980902;28;19918;-78
2022/01/25 03:38:27;;;;;;;;;;;;;;;-6.10;96.24;101726.47;4973716;28;19922;-82
2022/01/25 03:40:52;;;;;;;;;;;;;;;-6.11;95.75;101719.47;4975776;28;19918;-82
2022/01/25 03:43:19;;;;;;;;;;;;;;;-6.23;96.09;101721.75;4974301;28;19965;-82
2022/01/25 03:45:56;;;;;;;;;;;;;;;-6.25;96.21;101718.50;4983653;28;19921;-82
2022/01/25 03:50:48;;;;;;;;;;;;;;;-6.29;96.10;101717.47;4990477;28;20452;-82
2022/01/25 03:53:14;;;;;;;;;;;;;;;-6.26;95.91;101708.78;4978785;28;20000;-81
2022/01/25 03:55:39;;;;;;;;;;;;;;;-6.25;96.02;101707.72;4987037;28;20366;-82
2022/01/25 03:58:05;;;;;;;;;;;;;;;-6.20;96.53;101713.06;4980999;28;19926;-82
2022/01/25 04:00:31;;;;;;;;;;;;;;;-6.14;96.34;101710.03;4975899;28;19918;-82
2022/01/25 04:03:11;;;;;;;;;;;;;;;-6.14;96.03;101725.41;4969529;28;19957;-82
2022/01/25 04:05:58;;;;;;;;;;;;;;;-6.10;95.83;101710.25;4975057;28;19924;-82
2022/01/25 04:08:22;;;;;;;;;;;;;;;-6.08;96.22;101708.09;4972973;28;20542;-82
2022/01/25 04:10:47;;;;;;;;;;;;;;;-6.13;96.35;101700.03;4973127;28;19925;-81
2022/01/25 04:13:13;;;;;;;;;;;;;;;-6.10;96.62;101688.66;4983297;28;19917;-78
2022/01/25 04:15:49;;;;;;;;;;;;;;;-6.03;96.21;101694.53;4966502;28;19913;-82
2022/01/25 04:18:34;;;;;;;;;;;;;;;-6.01;96.09;101689.63;4974640;28;19941;-82
2022/01/25 04:21:23;;;;;;;;;;;;;;;-5.97;96.21;101693.38;4971727;28;19914;-82
2022/01/25 04:26:32;;;;;;;;;;;;;;;-6.08;96.54;101662.16;4972481;28;20334;-82
2022/01/25 04:28:58;;;;;;;;;;;;;;;-6.10;96.82;101685.94;4975847;28;19924;-82
2022/01/25 04:31:23;;;;;;;;;;;;;;;-6.14;97.54;101671.41;4973825;28;19918;-82
2022/01/25 04:50:04;;;;;;;;;;;;;;;-5.93;98.41;101667.41;4969461;28;19925;-82
2022/01/25 04:52:36;;;;;;;;;;;;;;;-5.84;98.39;101665.66;4958433;28;19918;-82
2022/01/25 05:00:13;;;;;;;;;;;;;;;-5.72;97.96;101668.75;4971102;28;20012;-78
2022/01/25 05:05:15;;;;;;;;;;;;;;;-5.69;98.43;101664.66;4973067;28;19918;-78
2022/01/25 05:10:16;;;;;;;;;;;;;;;-5.66;98.65;101651.34;4972225;28;19922;-82
2022/01/25 05:12:50;;;;;;;;;;;;;;;-5.63;98.99;101654.59;4974538;28;20342;-82
2022/01/25 05:15:23;;;;;;;;;;;;;;;-5.62;98.81;101645.41;4971972;28;19922;-82
2022/01/25 05:18:04;;;;;;;;;;;;;;;-5.74;97.99;101643.88;4972679;28;20001;-81
2022/01/25 05:23:14;;;;;;;;;;;;;;;-5.74;98.84;101643.88;4976814;28;19957;-82
2022/01/25 05:25:39;;;;;;;;;;;;;;;-5.71;98.86;101643.34;4974952;28;20339;-82
2022/01/25 05:28:05;;;;;;;;;;;;;;;-5.72;98.69;101630.91;4975916;28;19922;-82
2022/01/25 05:30:30;;;;;;;;;;;;;;;-5.70;98.97;101636.81;4975505;28;19961;-82
2022/01/25 05:32:56;;;;;;;;;;;;;;;-5.71;98.39;101634.41;4979998;28;20326;-78
2022/01/25 05:35:21;;;;;;;;;;;;;;;-5.71;98.30;101642.53;4980691;28;19918;-78
2022/01/25 05:37:46;;;;;;;;;;;;;;;-5.70;98.08;101636.81;4976987;28;19928;-78
2022/01/25 05:40:17;;;;;;;;;;;;;;;-5.70;97.83;101622.53;4989513;28;20461;-78
2022/01/25 05:42:49;;;;;;;;;;;;;;;-5.73;97.79;101637.41;4978040;28;19922;-78
2022/01/25 05:45:39;;;;;;;;;;;;;;;-5.78;97.85;101631.28;4984843;28;19929;-79
2022/01/25 05:48:04;;;;;;;;;;;;;;;-5.80;97.75;101631.56;4978792;28;19918;-78
2022/01/25 05:50:30;;;;;;;;;;;;;;;-5.83;98.05;101634.84;4974720;28;20371;-78
2022/01/25 05:52:55;;;;;;;;;;;;;;;-5.88;98.21;101636.81;4975321;28;19922;-78
2022/01/25 05:55:21;;;;;;;;;;;;;;;-5.89;98.21;101632.50;4974407;28;20441;-78
2022/01/25 05:57:46;;;;;;;;;;;;;;;-5.90;97.88;101642.50;4981262;28;20417;-78
2022/01/25 06:00:12;;;;;;;;;;;;;;;-5.89;97.83;101636.00;4975461;28;20624;-78
2022/01/25 06:02:37;;;;;;;;;;;;;;;-5.95;98.23;101634.47;4975196;28;20396;-78
2022/01/25 06:05:04;;;;;;;;;;;;;;;-5.94;98.33;101633.34;4974800;28;20371;-78
2022/01/25 06:07:29;;;;;;;;;;;;;;;-5.91;98.87;101624.69;4975148;28;19918;-83
2022/01/25 06:09:54;;;;;;;;;;;;;;;-5.92;99.11;101631.19;4975205;28;19925;-78
2022/01/25 06:12:20;;;;;;;;;;;;;;;-5.88;99.27;101629.50;4974959;28;19997;-79
2022/01/25 06:14:45;;;;;;;;;;;;;;;-5.83;99.30;101625.91;4974898;28;19969;-78
2022/01/25 06:17:11;;;;;;;;;;;;;;;-5.82;99.75;101628.31;4956850;28;20503;-79
2022/01/25 06:19:36;;;;;;;;;;;;;;;-5.78;99.71;101623.94;4974309;28;19918;-79
2022/01/25 06:22:01;;;;;;;;;;;;;;;-5.71;99.77;101621.72;4956140;28;19921;-79
2022/01/25 06:24:27;;;;;;;;;;;;;;;-5.68;99.61;101615.72;4971816;28;19922;-79
2022/01/25 06:26:52;;;;;;;;;;;;;;;-5.68;99.24;101617.63;4973412;28;19926;-83
2022/01/25 06:29:19;;;;;;;;;;;;;;;-5.64;99.07;101626.75;4971826;28;19922;-83
2022/01/25 06:31:47;;;;;;;;;;;;;;;-5.60;99.01;101621.56;4973134;28;20001;-84
2022/01/25 06:34:12;;;;;;;;;;;;;;;-5.55;98.93;101624.22;4969104;28;19926;-83
2022/01/25 06:36:38;;;;;;;;;;;;;;;-5.54;98.61;101618.53;4965968;28;19977;-83
2022/01/25 06:39:03;;;;;;;;;;;;;;;-5.49;98.63;101623.03;4965565;28;19929;-83
2022/01/25 06:41:29;;;;;;;;;;;;;;;-5.38;99.90;101622.63;4970544;28;20013;-85
2022/01/25 06:43:54;;;;;;;;;;;;;;;-5.33;99.18;101619.03;4973574;28;19961;-84
2022/01/25 06:46:19;;;;;;;;;;;;;;;-5.39;98.60;101617.50;4971483;28;19928;-84
2022/01/25 06:48:45;;;;;;;;;;;;;;;-5.49;98.80;101618.44;4968708;28;19937;-79
2022/01/25 06:51:10;;;;;;;;;;;;;;;-5.45;99.03;101624.06;4967088;28;19925;-79
2022/01/25 06:53:35;;;;;;;;;;;;;;;-5.36;99.20;101622.31;4968262;28;19969;-79
2022/01/25 06:56:04;;;;;;;;;;;;;;;-5.40;99.07;101624.00;4967655;28;20422;-79
2022/01/25 06:58:29;;;;;;;;;;;;;;;-5.38;99.18;101619.91;4965310;28;19924;-79
2022/01/25 07:00:55;;;;;;;;;;;;;;;-5.27;99.02;101620.56;4968327;28;19918;-79
2022/01/25 07:03:20;;;;;;;;;;;;;;;-5.14;98.82;101622.53;4969895;28;20094;-79
2022/01/25 07:05:46;;;;;;;;;;;;;;;-5.08;98.58;101613.25;4980021;28;19960;-79
2022/01/25 07:08:11;;;;;;;;;;;;;;;-5.01;98.76;101610.19;4966833;28;19922;-79
2022/01/25 07:10:37;;;;;;;;;;;;;;;-4.96;98.45;101608.19;4964017;28;19918;-79
2022/01/25 07:13:02;;;;;;;;;;;;;;;-4.90;98.22;101609.72;4964669;28;19925;-79
2022/01/25 07:15:27;;;;;;;;;;;;;;;-4.81;98.20;101613.34;4947301;28;19968;-79
2022/01/25 07:17:53;;;;;;;;;;;;;;;-4.76;98.15;101607.84;4964692;28;19926;-79
2022/01/25 07:20:18;;;;;;;;;;;;;;;-4.80;98.06;101612.25;4965337;28;19932;-79
